createdAt,value
2022-10-10T00:01:10.354Z,0.50
2022-10-10T00:03:57.181Z,0.50
2022-10-10T00:06:44.528Z,0.40
2022-10-10T00:09:31.337Z,0.60
2022-10-10T00:12:18.494Z,0.77
2022-10-10T00:15:05.379Z,0.50
2022-10-10T00:17:52.327Z,0.70
2022-10-10T00:20:40.336Z,0.70
2022-10-10T00:23:27.480Z,0.57
2022-10-10T00:26:18.930Z,0.40
2022-10-10T00:29:07.117Z,0.50
2022-10-10T00:31:53.955Z,0.70
2022-10-10T00:34:41.020Z,0.57
2022-10-10T00:37:27.873Z,0.73
2022-10-10T00:40:15.039Z,0.40
2022-10-10T00:43:01.992Z,0.60
2022-10-10T00:46:00.178Z,0.50
2022-10-10T00:48:54.352Z,0.40
2022-10-10T00:51:41.307Z,0.80
2022-10-10T00:54:31.759Z,0.87
2022-10-10T00:57:27.872Z,0.60
2022-10-10T01:00:15.368Z,0.70
2022-10-10T01:03:02.436Z,0.60
2022-10-10T01:05:49.816Z,0.40
2022-10-10T01:08:38.605Z,0.67
2022-10-10T01:11:48.752Z,0.50
2022-10-10T01:15:01.169Z,0.50
2022-10-10T01:18:00.884Z,0.70
2022-10-10T01:21:04.754Z,0.80
2022-10-10T01:24:10.312Z,0.60
2022-10-10T01:27:12.323Z,0.70
2022-10-10T01:30:03.737Z,0.40
2022-10-10T01:33:06.217Z,0.43
2022-10-10T01:36:08.431Z,0.50
2022-10-10T01:39:34.137Z,0.50
2022-10-10T01:42:39.024Z,0.50
2022-10-10T01:45:27.054Z,0.40
2022-10-10T01:48:17.512Z,0.60
2022-10-10T01:51:27.405Z,0.33
2022-10-10T01:54:36.989Z,0.47
2022-10-10T01:57:45.202Z,0.30
2022-10-10T02:00:35.396Z,0.30
2022-10-10T02:03:40.620Z,0.50
2022-10-10T02:06:42.543Z,0.50
2022-10-10T02:09:35.708Z,0.70
2022-10-10T02:12:24.604Z,0.50
2022-10-10T02:15:16.144Z,0.47
2022-10-10T02:18:05.545Z,0.33
2022-10-10T02:20:53.249Z,0.53
2022-10-10T02:23:41.942Z,0.60
2022-10-10T02:26:33.233Z,0.40
2022-10-10T02:29:23.820Z,0.50
2022-10-10T02:32:29.167Z,0.50
2022-10-10T02:35:20.050Z,0.60
2022-10-10T02:38:08.629Z,0.50
2022-10-10T02:40:56.280Z,0.43
2022-10-10T02:43:43.965Z,0.60
2022-10-10T02:46:33.770Z,0.30
2022-10-10T02:49:21.817Z,0.37
2022-10-10T02:52:08.712Z,0.50
2022-10-10T02:54:55.605Z,0.40
2022-10-10T02:57:42.460Z,0.30
2022-10-10T07:25:41.052Z,1.20
2022-10-10T07:28:29.360Z,1.67
2022-10-10T07:31:22.209Z,1.20
2022-10-10T07:34:09.820Z,1.37
2022-10-10T07:36:56.902Z,1.10
2022-10-10T07:39:44.689Z,1.20
2022-10-10T07:42:31.734Z,1.37
2022-10-10T07:45:18.612Z,1.50
2022-10-10T07:48:05.655Z,1.60
2022-10-10T07:50:52.550Z,1.43
2022-10-10T07:53:39.756Z,1.30
2022-10-10T07:56:28.816Z,1.40
2022-10-10T07:59:15.994Z,1.47
2022-10-10T08:02:02.874Z,1.30
2022-10-10T08:04:49.991Z,1.50
2022-10-10T08:07:36.811Z,1.33
2022-10-10T08:10:24.133Z,1.40
2022-10-10T08:13:11.087Z,1.50
2022-10-10T08:16:01.820Z,1.57
2022-10-10T08:18:48.892Z,1.17
2022-10-10T08:21:36.796Z,1.67
2022-10-10T08:24:23.990Z,1.17
2022-10-10T08:27:11.063Z,1.47
2022-10-10T08:29:58.131Z,1.30
2022-10-10T08:32:25.563Z,1.33
2022-10-10T08:34:52.404Z,1.27
2022-10-10T08:37:19.368Z,1.10
2022-10-10T08:39:46.285Z,1.40
2022-10-10T08:42:31.664Z,1.37
2022-10-10T08:45:04.993Z,1.20
2022-10-10T08:48:03.002Z,1.23
2022-10-10T08:50:59.777Z,1.13
2022-10-10T08:53:46.716Z,1.17
2022-10-10T08:56:29.815Z,1.13
2022-10-10T08:59:04.690Z,0.93
2022-10-10T09:02:17.806Z,1.30
2022-10-10T09:04:25.847Z,1.10
2022-10-10T09:07:01.809Z,1.27
2022-10-10T09:09:31.636Z,1.13
2022-10-10T09:12:14.211Z,1.40
2022-10-10T09:15:02.688Z,1.67
2022-10-10T09:17:50.908Z,1.27
2022-10-10T09:20:20.487Z,1.40
2022-10-10T09:23:20.138Z,1.07
2022-10-10T09:26:06.415Z,1.30
2022-10-10T09:29:01.908Z,1.30
2022-10-10T09:31:35.164Z,1.47
2022-10-10T09:34:23.207Z,1.10
2022-10-10T09:36:50.788Z,1.37
2022-10-10T09:39:37.576Z,1.03
2022-10-10T09:42:10.253Z,1.40
2022-10-10T09:44:39.735Z,1.00
2022-10-10T09:47:06.562Z,0.90
2022-10-10T09:49:55.028Z,1.30
2022-10-10T09:52:48.335Z,1.23
2022-10-10T09:55:59.182Z,0.90
2022-10-10T09:59:06.438Z,1.40
2022-10-10T10:01:53.355Z,1.17
2022-10-10T10:04:40.361Z,1.40
2022-10-10T10:07:44.184Z,1.10
2022-10-10T10:10:39.631Z,0.93
2022-10-10T10:13:33.594Z,1.37
2022-10-10T10:16:20.513Z,1.07
2022-10-10T10:19:08.178Z,1.03
2022-10-10T10:22:09.680Z,1.00
2022-10-10T10:24:57.067Z,0.80
2022-10-10T10:27:46.147Z,1.00
2022-10-10T10:30:45.536Z,1.00
2022-10-10T10:34:28.031Z,1.00
2022-10-10T10:37:27.036Z,1.10
2022-10-10T10:40:50.712Z,1.10
2022-10-10T10:43:52.608Z,1.17
2022-10-10T10:46:56.443Z,1.30
2022-10-10T10:49:54.413Z,1.13
2022-10-10T10:53:01.212Z,1.20
2022-10-10T10:55:57.459Z,1.20
2022-10-10T10:59:35.751Z,1.13
2022-10-10T11:02:08.443Z,0.97
2022-10-10T11:05:27.687Z,0.93
2022-10-10T11:08:41.546Z,0.97
2022-10-10T11:11:36.200Z,0.93
2022-10-10T11:14:35.032Z,1.00
2022-10-10T11:17:58.072Z,1.20
2022-10-10T11:20:49.571Z,1.27
2022-10-10T11:23:49.714Z,1.30
2022-10-10T11:26:49.445Z,1.00
2022-10-10T11:29:50.643Z,0.77
2022-10-10T11:32:44.322Z,1.00
2022-10-10T11:36:03.448Z,1.27
2022-10-10T11:39:14.416Z,0.90
2022-10-10T11:42:27.681Z,1.00
2022-10-10T11:45:22.623Z,1.20
2022-10-10T11:48:22.644Z,0.80
2022-10-10T11:51:16.388Z,1.10
2022-10-10T11:54:08.608Z,1.10
2022-10-10T11:57:02.805Z,1.33
2022-10-10T11:59:52.181Z,1.00
2022-10-10T12:02:52.584Z,1.07
2022-10-10T12:05:42.604Z,1.63
2022-10-10T12:08:58.456Z,1.30
2022-10-10T12:12:05.281Z,1.10
2022-10-10T12:14:53.356Z,1.30
2022-10-10T12:17:47.791Z,1.30
2022-10-10T12:20:34.645Z,1.17
2022-10-10T12:23:43.411Z,1.20
2022-10-10T12:26:35.278Z,1.20
2022-10-10T12:29:25.900Z,1.37
2022-10-10T12:32:50.525Z,1.40
2022-10-10T12:35:51.596Z,1.30
2022-10-10T12:38:47.690Z,1.13
2022-10-10T12:41:36.171Z,1.40
2022-10-10T12:44:35.372Z,1.20
2022-10-10T12:47:59.679Z,1.40
2022-10-10T12:50:45.780Z,1.27
2022-10-10T12:53:32.739Z,1.30
2022-10-10T12:56:22.490Z,1.37
2022-10-10T12:59:10.209Z,1.10
2022-10-10T13:02:07.112Z,1.40
2022-10-10T13:04:54.084Z,1.60
2022-10-10T13:07:42.674Z,1.70
2022-10-10T13:10:42.376Z,1.63
2022-10-10T13:13:40.667Z,1.40
2022-10-10T13:16:34.249Z,1.23
2022-10-10T13:19:01.433Z,1.80
2022-10-10T13:21:34.240Z,1.70
2022-10-10T13:24:06.923Z,1.73
2022-10-10T13:26:39.788Z,1.30
2022-10-10T13:29:44.316Z,1.37
2022-10-10T13:32:40.938Z,1.67
2022-10-10T13:35:35.983Z,1.40
2022-10-10T13:38:22.912Z,1.40
2022-10-10T13:41:10.111Z,2.33
2022-10-10T13:43:57.193Z,1.40
2022-10-10T13:46:52.598Z,2.33
2022-10-10T13:49:47.592Z,1.60
2022-10-10T13:52:42.864Z,1.50
2022-10-10T13:55:47.383Z,2.00
2022-10-10T13:58:35.359Z,1.90
2022-10-10T14:01:23.855Z,1.40
2022-10-10T14:04:12.329Z,1.50
2022-10-10T14:07:20.628Z,1.70
2022-10-10T14:10:15.813Z,1.63
2022-10-10T14:13:20.421Z,1.50
2022-10-10T14:16:07.698Z,1.50
2022-10-10T14:18:54.609Z,1.60
2022-10-10T14:21:41.472Z,1.80
2022-10-10T14:24:29.673Z,1.53
2022-10-10T14:27:16.757Z,1.83
2022-10-10T14:30:03.797Z,1.87
2022-10-10T14:32:50.965Z,1.97
2022-10-10T14:35:38.003Z,1.63
2022-10-10T14:38:25.290Z,1.73
2022-10-10T14:41:13.475Z,1.73
2022-10-10T14:44:00.976Z,1.80
2022-10-10T14:46:47.978Z,1.90
2022-10-10T14:49:41.096Z,1.90
2022-10-10T14:52:27.992Z,1.90
2022-10-10T14:55:14.927Z,1.93
2022-10-10T14:58:01.972Z,2.43
2022-10-10T15:00:49.059Z,1.90
2022-10-10T15:03:36.100Z,1.57
2022-10-10T15:06:23.110Z,1.53
2022-10-10T15:09:34.620Z,1.60
2022-10-10T15:12:16.957Z,1.97
2022-10-10T15:15:03.918Z,1.67
2022-10-10T15:17:50.901Z,1.83
2022-10-10T15:20:38.068Z,2.10
2022-10-10T15:23:26.776Z,1.67
2022-10-10T15:26:13.706Z,1.80
2022-10-10T15:29:00.647Z,1.67
2022-10-10T15:31:48.964Z,1.80
2022-10-10T15:34:36.232Z,1.60
2022-10-10T15:37:23.267Z,1.40
2022-10-10T15:40:10.405Z,2.07
2022-10-10T15:42:57.447Z,1.90
2022-10-10T15:48:51.303Z,1.67
2022-10-10T15:51:38.709Z,1.60
2022-10-10T15:54:25.637Z,1.40
2022-10-10T15:57:17.657Z,1.90
2022-10-10T15:59:17.786Z,1.40
2022-10-10T16:00:05.676Z,1.70
2022-10-10T16:02:59.097Z,1.80
2022-10-10T16:05:45.915Z,1.70
2022-10-10T16:08:32.981Z,1.80
2022-10-10T16:11:25.476Z,1.80
2022-10-10T16:14:14.423Z,2.00
2022-10-10T16:17:01.228Z,1.60
2022-10-10T16:19:48.231Z,2.03
2022-10-10T16:22:35.173Z,1.87
2022-10-10T16:25:23.171Z,1.73
2022-10-10T16:28:10.458Z,2.00
2022-10-10T16:30:57.395Z,1.83
2022-10-10T16:33:44.749Z,1.90
2022-10-10T16:36:35.342Z,1.80
2022-10-10T16:39:22.509Z,2.13
2022-10-10T16:42:09.598Z,2.03
2022-10-10T16:44:56.492Z,2.00
2022-10-10T16:47:43.479Z,2.23
2022-10-10T16:50:30.693Z,2.00
2022-10-10T16:53:18.300Z,2.17
2022-10-10T16:56:05.201Z,2.23
2022-10-10T16:58:52.347Z,2.40
2022-10-10T17:01:42.072Z,2.20
2022-10-10T17:04:28.951Z,2.27
2022-10-10T17:07:15.932Z,2.13
2022-10-10T17:10:02.987Z,2.30
2022-10-10T17:12:49.818Z,2.40
2022-10-10T17:15:37.114Z,2.40
2022-10-10T17:18:24.194Z,2.47
2022-10-10T17:21:11.094Z,2.50
2022-10-10T17:23:57.876Z,2.60
2022-10-10T17:26:44.776Z,2.37
2022-10-10T17:29:31.675Z,2.47
2022-10-10T17:32:18.687Z,2.63
2022-10-10T17:35:05.752Z,2.30
2022-10-10T17:37:52.468Z,2.50
2022-10-10T17:40:39.256Z,2.90
2022-10-10T17:43:27.323Z,2.10
2022-10-10T17:46:39.632Z,2.20
2022-10-10T17:49:28.844Z,2.20
2022-10-10T17:52:20.953Z,2.60
2022-10-10T17:55:08.348Z,2.23
2022-10-10T17:57:55.155Z,1.90
2022-10-10T18:00:42.216Z,2.00
2022-10-10T18:03:30.265Z,1.97
2022-10-10T18:06:17.447Z,1.87
2022-10-10T18:09:07.200Z,2.03
2022-10-10T18:11:54.348Z,1.70
2022-10-10T18:14:41.789Z,1.97
2022-10-10T18:17:28.855Z,2.20
2022-10-10T18:20:15.704Z,2.13
2022-10-10T18:23:02.555Z,2.20
2022-10-10T18:25:49.368Z,1.90
2022-10-10T18:28:36.306Z,1.87
2022-10-10T18:31:27.515Z,2.00
2022-10-10T18:34:15.075Z,1.90
2022-10-10T18:37:01.884Z,2.00
2022-10-10T18:39:48.878Z,1.73
2022-10-10T18:42:35.766Z,2.00
2022-10-10T18:45:22.847Z,2.00
2022-10-10T18:48:09.615Z,1.80
2022-10-10T18:50:56.557Z,1.77
2022-10-10T18:53:43.465Z,1.60
2022-10-10T18:56:32.444Z,1.63
2022-10-10T18:59:21.602Z,1.80
2022-10-10T19:02:08.727Z,1.63
2022-10-10T19:04:55.560Z,1.60
2022-10-10T19:10:26.111Z,1.70
2022-10-10T19:12:53.167Z,1.50
2022-10-10T19:15:20.100Z,1.50
2022-10-10T19:18:06.976Z,1.80
2022-10-10T19:20:54.016Z,1.70
2022-10-10T19:23:41.087Z,1.43
2022-10-10T19:26:30.608Z,1.90
2022-10-10T19:29:17.579Z,1.53
2022-10-10T19:32:04.429Z,1.40
2022-10-10T19:34:51.429Z,1.57
2022-10-10T19:37:38.242Z,1.50
2022-10-10T19:40:25.600Z,1.60
2022-10-10T19:43:12.489Z,1.70
2022-10-10T19:46:04.578Z,1.80
2022-10-10T19:48:52.359Z,1.70
2022-10-10T19:51:39.496Z,1.67
2022-10-10T19:54:26.401Z,1.83
2022-10-10T19:57:13.271Z,1.90
2022-10-10T20:00:00.489Z,1.73
2022-10-10T20:02:47.649Z,1.50
2022-10-10T20:05:34.579Z,1.47
2022-10-10T20:08:21.667Z,1.97
2022-10-10T20:11:12.152Z,1.60
2022-10-10T20:13:59.505Z,1.80
2022-10-10T20:16:46.741Z,1.87
2022-10-10T20:19:33.853Z,1.70
2022-10-10T20:22:20.647Z,1.70
2022-10-10T20:25:07.630Z,1.53
2022-10-10T20:27:54.501Z,1.73
2022-10-10T20:30:41.445Z,1.60
2022-10-10T20:33:28.471Z,1.50
2022-10-10T20:36:15.536Z,1.83
2022-10-10T20:39:02.452Z,1.70
2022-10-10T20:41:52.882Z,1.80
2022-10-10T20:44:39.707Z,1.80
2022-10-10T20:47:26.636Z,1.50
2022-10-10T20:50:13.667Z,1.50
2022-10-10T20:53:00.743Z,1.20
2022-10-10T20:55:47.688Z,1.63
2022-10-10T20:58:34.754Z,1.80
2022-10-10T21:01:35.912Z,1.63
2022-10-10T21:04:23.415Z,1.20
2022-10-10T21:07:10.236Z,1.50
2022-10-10T21:09:57.380Z,1.40
2022-10-10T21:12:44.238Z,1.50
2022-10-10T21:15:31.325Z,1.43
2022-10-10T21:18:18.187Z,1.30
2022-10-10T21:21:05.199Z,1.77
2022-10-10T21:23:58.928Z,1.23
2022-10-10T21:26:47.367Z,1.77
2022-10-10T21:29:34.403Z,1.60
2022-10-10T21:32:21.721Z,1.37
2022-10-10T21:35:08.637Z,1.60
2022-10-10T21:37:36.573Z,1.40
2022-10-10T21:40:23.647Z,1.60
2022-10-10T21:43:10.667Z,1.40
2022-10-10T21:45:58.849Z,1.80
2022-10-10T21:48:45.757Z,1.60
2022-10-10T21:51:32.676Z,1.30
2022-10-10T21:54:19.684Z,1.70
2022-10-10T21:57:06.523Z,1.63
2022-10-10T21:59:53.513Z,1.50
2022-10-10T22:02:40.304Z,1.30
2022-10-10T22:05:28.641Z,1.47
2022-10-10T22:08:15.519Z,1.37
2022-10-10T22:11:02.609Z,1.50
2022-10-10T22:13:49.560Z,1.43
2022-10-10T22:16:36.726Z,1.50
2022-10-10T22:19:24.191Z,1.47
2022-10-10T22:22:11.149Z,1.50
2022-10-10T22:24:58.112Z,1.83
2022-10-10T22:27:45.305Z,1.80
2022-10-10T22:30:33.541Z,1.60
2022-10-10T22:33:20.616Z,2.03
2022-10-10T22:36:08.026Z,1.60
2022-10-10T22:39:00.211Z,1.70
2022-10-10T22:41:47.003Z,1.53
2022-10-10T22:44:33.944Z,1.70
2022-10-10T22:47:20.861Z,1.90
2022-10-10T22:50:07.831Z,1.60
2022-10-10T22:52:55.261Z,1.53
2022-10-10T22:55:42.372Z,1.40
2022-10-10T22:58:29.152Z,1.90
2022-10-10T23:01:16.149Z,1.90
2022-10-10T23:04:03.157Z,2.00
2022-10-10T23:06:50.105Z,1.87
2022-10-10T23:09:37.888Z,1.87
2022-10-10T23:12:25.182Z,2.10
2022-10-10T23:15:12.008Z,1.93
2022-10-10T23:17:59.044Z,1.90
2022-10-10T23:20:45.824Z,1.87
2022-10-10T23:23:33.392Z,1.70
2022-10-10T23:26:24.947Z,1.93
2022-10-10T23:29:12.255Z,2.27
2022-10-10T23:31:59.108Z,1.53
2022-10-10T23:34:46.003Z,1.87
2022-10-10T23:37:32.821Z,2.00
2022-10-10T23:40:19.779Z,1.90
2022-10-10T23:43:06.736Z,2.20
2022-10-10T23:45:53.713Z,1.90
2022-10-10T23:48:40.772Z,1.90
2022-10-10T23:51:28.332Z,1.90
2022-10-10T23:54:16.097Z,1.87
2022-10-10T23:57:03.313Z,2.00
2022-10-10T23:59:30.412Z,2.17
